Wetterdaten: Woche 30.09.13 - 06.10.13 (KW40)
Datum Zeit Temp. Aussen +5cm Feuchte Auss Luftdruck Regen Sonnenschein Regendauer UV Solar Windben
30.09.2013 00:00 9,5 C 7,9 C 81 % 1009,9 hPa 0,0 l/m 0,00 h 0,00 h 0,0 UV-I 0 W/m 0,1 km/h (0 Bft)
30.09.2013 01:00 8,5 C 6,8 C 83 % 1009,9 hPa 0,0 l/m 0,00 h 0,00 h 0,0 UV-I 0 W/m 0,0 km/h (0 Bft)
30.09.2013 02:00 8,2 C 6,7 C 85 % 1009,9 hPa 0,0 l/m 0,00 h 0,00 h 0,0 UV-I 0 W/m 0,0 km/h (0 Bft)
30.09.2013 03:00 7,9 C 6,6 C 86 % 1009,9 hPa 0,0 l/m 0,00 h 0,00 h 0,0 UV-I 0 W/m 0,0 km/h (0 Bft)
30.09.2013 04:00 7,3 C 6,1 C 87 % 1009,8 hPa 0,0 l/m 0,00 h 0,00 h 0,0 UV-I 0 W/m 0,0 km/h (0 Bft)
30.09.2013 05:00 6,9 C 5,6 C 89 % 1009,7 hPa 0,0 l/m 0,00 h 0,00 h 0,0 UV-I 0 W/m 0,0 km/h (0 Bft)
30.09.2013 06:00 6,4 C 5,1 C 91 % 1009,5 hPa 0,0 l/m 0,00 h 0,00 h 0,0 UV-I 0 W/m 0,0 km/h (0 Bft)
30.09.2013 07:00 6,1 C 4,9 C 91 % 1009,4 hPa 0,0 l/m 0,00 h 0,00 h 0,0 UV-I 10 W/m 0,0 km/h (0 Bft)
30.09.2013 08:00 6,5 C 5,4 C 92 % 1009,7 hPa 0,0 l/m 0,37 h 0,00 h 0,0 UV-I 69 W/m 0,0 km/h (0 Bft)
30.09.2013 09:00 8,6 C 7,4 C 86 % 1009,8 hPa 0,0 l/m 0,97 h 0,00 h 0,0 UV-I 219 W/m 0,0 km/h (0 Bft)
30.09.2013 10:00 11,5 C 10,1 C 78 % 1009,5 hPa 0,0 l/m 0,97 h 0,00 h 0,6 UV-I 345 W/m 0,7 km/h (0 Bft)
30.09.2013 11:00 13,9 C 12,7 C 69 % 1009,3 hPa 0,0 l/m 0,97 h 0,00 h 1,2 UV-I 452 W/m 13,1 km/h (3 Bft)
30.09.2013 12:00 15,3 C 14,0 C 64 % 1009,3 hPa 0,0 l/m 0,97 h 0,00 h 1,4 UV-I 522 W/m 17,3 km/h (3 Bft)
30.09.2013 13:00 15,7 C 14,5 C 65 % 1009,1 hPa 0,0 l/m 0,97 h 0,00 h 1,6 UV-I 537 W/m 7,7 km/h (2 Bft)
30.09.2013 14:00 16,7 C 15,3 C 63 % 1008,6 hPa 0,0 l/m 0,97 h 0,00 h 1,7 UV-I 513 W/m 9,8 km/h (2 Bft)
30.09.2013 15:00 17,4 C 15,8 C 61 % 1008,4 hPa 0,0 l/m 0,90 h 0,00 h 1,2 UV-I 418 W/m 9,7 km/h (2 Bft)
30.09.2013 16:00 17,5 C 16,3 C 61 % 1008,4 hPa 0,0 l/m 0,47 h 0,00 h 0,6 UV-I 252 W/m 7,5 km/h (2 Bft)
30.09.2013 17:00 16,8 C 15,5 C 63 % 1008,6 hPa 0,0 l/m 0,90 h 0,00 h 0,0 UV-I 182 W/m 13,8 km/h (3 Bft)
30.09.2013 18:00 14,8 C 13,2 C 68 % 1009,0 hPa 0,0 l/m 0,30 h 0,00 h 0,0 UV-I 50 W/m 10,6 km/h (2 Bft)
30.09.2013 19:00 13,6 C 11,9 C 73 % 1009,6 hPa 0,0 l/m 0,00 h 0,00 h 0,0 UV-I 6 W/m 0,0 km/h (0 Bft)
30.09.2013 20:00 13,4 C 11,7 C 75 % 1010,0 hPa 0,0 l/m 0,00 h 0,00 h 0,0 UV-I 0 W/m 0,0 km/h (0 Bft)
30.09.2013 21:00 13,6 C 11,8 C 74 % 1010,4 hPa 0,0 l/m 0,00 h 0,00 h 0,0 UV-I 0 W/m 0,0 km/h (0 Bft)
30.09.2013 22:00 13,3 C 11,7 C 76 % 1010,7 hPa 0,0 l/m 0,00 h 0,00 h 0,0 UV-I 0 W/m 0,0 km/h (0 Bft)
30.09.2013 23:00 13,0 C 11,0 C 73 % 1010,8 hPa 0,0 l/m 0,00 h 0,00 h 0,0 UV-I 0 W/m 0,3 km/h (0 Bft)
01.10.2013 00:00 10,6 C 8,4 C 82 % 1011,1 hPa 0,0 l/m 0,00 h 0,00 h 0,0 UV-I 0 W/m 0,0 km/h (0 Bft)
01.10.2013 01:00 9,4 C 7,2 C 83 % 1011,4 hPa 0,0 l/m 0,00 h 0,00 h 0,0 UV-I 0 W/m 0,0 km/h (0 Bft)
01.10.2013 02:00 8,7 C 7,0 C 86 % 1011,4 hPa 0,0 l/m 0,00 h 0,00 h 0,0 UV-I 0 W/m 0,0 km/h (0 Bft)
01.10.2013 03:00 8,7 C 7,3 C 87 % 1011,4 hPa 0,0 l/m 0,00 h 0,00 h 0,0 UV-I 0 W/m 0,0 km/h (0 Bft)
01.10.2013 04:00 9,1 C 8,2 C 86 % 1011,4 hPa 0,0 l/m 0,00 h 0,00 h 0,0 UV-I 0 W/m 0,0 km/h (0 Bft)
01.10.2013 05:00 9,5 C 8,5 C 85 % 1011,5 hPa 0,0 l/m 0,00 h 0,00 h 0,0 UV-I 0 W/m 0,0 km/h (0 Bft)
01.10.2013 06:00 9,6 C 8,6 C 84 % 1011,5 hPa 0,0 l/m 0,00 h 0,00 h 0,0 UV-I 0 W/m 0,0 km/h (0 Bft)
01.10.2013 07:00 9,4 C 8,3 C 84 % 1011,8 hPa 0,0 l/m 0,00 h 0,00 h 0,0 UV-I 10 W/m 0,0 km/h (0 Bft)
01.10.2013 08:00 9,3 C 8,4 C 81 % 1012,2 hPa 0,0 l/m 0,17 h 0,00 h 0,0 UV-I 67 W/m 0,5 km/h (0 Bft)
01.10.2013 09:00 9,9 C 9,2 C 79 % 1012,5 hPa 0,0 l/m 0,77 h 0,00 h 0,0 UV-I 205 W/m 2,0 km/h (1 Bft)
01.10.2013 10:00 11,8 C 10,7 C 74 % 1012,7 hPa 0,0 l/m 0,97 h 0,00 h 0,7 UV-I 344 W/m 2,7 km/h (1 Bft)
01.10.2013 11:00 13,4 C 12,5 C 70 % 1012,8 hPa 0,0 l/m 0,97 h 0,00 h 1,2 UV-I 452 W/m 2,7 km/h (1 Bft)
01.10.2013 12:00 15,3 C 14,0 C 66 % 1013,0 hPa 0,0 l/m 0,97 h 0,00 h 1,4 UV-I 516 W/m 3,9 km/h (1 Bft)
01.10.2013 13:00 16,6 C 15,2 C 63 % 1012,8 hPa 0,0 l/m 0,97 h 0,00 h 1,5 UV-I 532 W/m 6,8 km/h (2 Bft)
01.10.2013 14:00 17,5 C 16,0 C 61 % 1012,5 hPa 0,0 l/m 0,97 h 0,00 h 1,6 UV-I 504 W/m 7,5 km/h (2 Bft)
01.10.2013 15:00 18,0 C 16,3 C 60 % 1012,4 hPa 0,0 l/m 0,97 h 0,00 h 1,1 UV-I 433 W/m 7,8 km/h (2 Bft)
01.10.2013 16:00 17,9 C 16,2 C 61 % 1012,4 hPa 0,0 l/m 0,97 h 0,00 h 0,6 UV-I 319 W/m 7,2 km/h (2 Bft)
01.10.2013 17:00 17,2 C 15,4 C 62 % 1012,6 hPa 0,0 l/m 0,97 h 0,00 h 0,0 UV-I 183 W/m 8,0 km/h (2 Bft)
01.10.2013 18:00 15,8 C 13,7 C 64 % 1012,7 hPa 0,0 l/m 0,20 h 0,00 h 0,0 UV-I 42 W/m 3,1 km/h (1 Bft)
01.10.2013 19:00 14,0 C 12,0 C 66 % 1013,3 hPa 0,0 l/m 0,00 h 0,00 h 0,0 UV-I 6 W/m 1,3 km/h (1 Bft)
01.10.2013 20:00 12,8 C 11,1 C 68 % 1014,2 hPa 0,0 l/m 0,00 h 0,00 h 0,0 UV-I 0 W/m 1,6 km/h (1 Bft)
01.10.2013 21:00 11,6 C 10,2 C 71 % 1014,8 hPa 0,0 l/m 0,00 h 0,00 h 0,0 UV-I 0 W/m 3,0 km/h (1 Bft)
01.10.2013 22:00 11,5 C 9,8 C 66 % 1015,1 hPa 0,0 l/m 0,00 h 0,00 h 0,0 UV-I 0 W/m 9,8 km/h (2 Bft)
01.10.2013 23:00 10,6 C 9,0 C 67 % 1015,3 hPa 0,0 l/m 0,00 h 0,00 h 0,0 UV-I 0 W/m 6,0 km/h (2 Bft)
02.10.2013 00:00 9,1 C 7,3 C 72 % 1015,7 hPa 0,0 l/m 0,00 h 0,00 h 0,0 UV-I 0 W/m 0,8 km/h (0 Bft)
02.10.2013 01:00 7,1 C 5,1 C 81 % 1016,0 hPa 0,0 l/m 0,00 h 0,00 h 0,0 UV-I 0 W/m 0,0 km/h (0 Bft)
02.10.2013 02:00 5,4 C 3,6 C 87 % 1016,2 hPa 0,0 l/m 0,00 h 0,00 h 0,0 UV-I 0 W/m 0,0 km/h (0 Bft)
02.10.2013 03:00 4,8 C 3,1 C 89 % 1016,2 hPa 0,0 l/m 0,00 h 0,00 h 0,0 UV-I 0 W/m 0,0 km/h (0 Bft)
02.10.2013 04:00 4,1 C 2,6 C 91 % 1016,3 hPa 0,0 l/m 0,00 h 0,00 h 0,0 UV-I 0 W/m 0,0 km/h (0 Bft)
02.10.2013 05:00 3,4 C 1,9 C 93 % 1016,3 hPa 0,0 l/m 0,00 h 0,00 h 0,0 UV-I 0 W/m 0,0 km/h (0 Bft)
02.10.2013 06:00 2,9 C 1,6 C 94 % 1016,5 hPa 0,0 l/m 0,00 h 0,00 h 0,0 UV-I 0 W/m 0,0 km/h (0 Bft)
02.10.2013 07:00 2,9 C 1,3 C 94 % 1016,8 hPa 0,0 l/m 0,00 h 0,00 h 0,0 UV-I 10 W/m 0,0 km/h (0 Bft)
02.10.2013 08:00 4,2 C 2,8 C 94 % 1017,1 hPa 0,0 l/m 0,40 h 0,00 h 0,0 UV-I 73 W/m 0,2 km/h (0 Bft)
02.10.2013 09:00 7,6 C 6,5 C 84 % 1017,4 hPa 0,0 l/m 0,97 h 0,00 h 0,0 UV-I 201 W/m 8,8 km/h (2 Bft)
02.10.2013 10:00 10,4 C 9,4 C 74 % 1017,7 hPa 0,0 l/m 0,93 h 0,00 h 0,6 UV-I 285 W/m 19,6 km/h (3 Bft)
02.10.2013 11:00 13,1 C 12,1 C 67 % 1017,9 hPa 0,0 l/m 0,97 h 0,00 h 1,0 UV-I 443 W/m 20,8 km/h (4 Bft)
02.10.2013 12:00 14,3 C 13,4 C 60 % 1017,9 hPa 0,0 l/m 0,97 h 0,00 h 1,1 UV-I 435 W/m 24,3 km/h (4 Bft)
02.10.2013 13:00 14,6 C 13,9 C 58 % 1017,8 hPa 0,0 l/m 0,57 h 0,00 h 1,1 UV-I 339 W/m 25,4 km/h (4 Bft)
02.10.2013 14:00 15,7 C 15,0 C 57 % 1017,5 hPa 0,0 l/m 0,93 h 0,00 h 1,2 UV-I 413 W/m 21,1 km/h (4 Bft)
02.10.2013 15:00 16,0 C 15,2 C 58 % 1017,4 hPa 0,0 l/m 0,50 h 0,00 h 0,8 UV-I 361 W/m 19,4 km/h (3 Bft)
02.10.2013 16:00 17,0 C 15,6 C 55 % 1017,3 hPa 0,0 l/m 0,97 h 0,00 h 0,7 UV-I 371 W/m 22,4 km/h (4 Bft)
02.10.2013 17:00 16,1 C 14,3 C 57 % 1017,2 hPa 0,0 l/m 0,97 h 0,00 h 0,0 UV-I 195 W/m 18,0 km/h (3 Bft)
02.10.2013 18:00 14,7 C 12,9 C 59 % 1017,4 hPa 0,0 l/m 0,30 h 0,00 h 0,0 UV-I 41 W/m 17,0 km/h (3 Bft)
02.10.2013 19:00 13,3 C 11,5 C 64 % 1018,0 hPa 0,0 l/m 0,00 h 0,00 h 0,0 UV-I 6 W/m 12,5 km/h (3 Bft)
02.10.2013 20:00 12,3 C 10,5 C 67 % 1018,3 hPa 0,0 l/m 0,00 h 0,00 h 0,0 UV-I 0 W/m 9,9 km/h (2 Bft)
02.10.2013 21:00 11,6 C 10,0 C 69 % 1018,6 hPa 0,0 l/m 0,00 h 0,00 h 0,0 UV-I 0 W/m 12,5 km/h (3 Bft)
02.10.2013 22:00 11,3 C 9,6 C 67 % 1018,7 hPa 0,0 l/m 0,00 h 0,00 h 0,0 UV-I 0 W/m 19,1 km/h (3 Bft)
02.10.2013 23:00 11,0 C 9,4 C 66 % 1018,6 hPa 0,0 l/m 0,00 h 0,00 h 0,0 UV-I 0 W/m 18,6 km/h (3 Bft)
03.10.2013 00:00 10,5 C 9,0 C 66 % 1018,7 hPa 0,0 l/m 0,00 h 0,00 h 0,0 UV-I 0 W/m 17,7 km/h (3 Bft)
03.10.2013 01:00 10,0 C 8,4 C 67 % 1018,7 hPa 0,0 l/m 0,00 h 0,00 h 0,0 UV-I 0 W/m 16,0 km/h (3 Bft)
03.10.2013 02:00 9,7 C 8,0 C 67 % 1018,6 hPa 0,0 l/m 0,00 h 0,00 h 0,0 UV-I 0 W/m 17,1 km/h (3 Bft)
03.10.2013 03:00 9,4 C 7,8 C 68 % 1018,3 hPa 0,0 l/m 0,00 h 0,00 h 0,0 UV-I 0 W/m 23,4 km/h (4 Bft)
03.10.2013 04:00 9,1 C 7,8 C 68 % 1017,8 hPa 0,0 l/m 0,00 h 0,00 h 0,0 UV-I 0 W/m 24,2 km/h (4 Bft)
03.10.2013 05:00 9,0 C 7,6 C 68 % 1017,8 hPa 0,0 l/m 0,00 h 0,00 h 0,0 UV-I 0 W/m 25,2 km/h (4 Bft)
03.10.2013 06:00 8,5 C 7,2 C 69 % 1017,7 hPa 0,0 l/m 0,00 h 0,00 h 0,0 UV-I 0 W/m 21,8 km/h (4 Bft)
03.10.2013 07:00 8,1 C 6,8 C 69 % 1017,5 hPa 0,0 l/m 0,10 h 0,00 h 0,0 UV-I 11 W/m 27,3 km/h (4 Bft)
03.10.2013 08:00 8,2 C 7,1 C 68 % 1017,6 hPa 0,0 l/m 0,43 h 0,00 h 0,0 UV-I 70 W/m 28,4 km/h (4 Bft)
03.10.2013 09:00 9,0 C 8,1 C 66 % 1017,5 hPa 0,0 l/m 0,90 h 0,00 h 0,0 UV-I 182 W/m 25,1 km/h (4 Bft)
03.10.2013 10:00 10,5 C 9,4 C 62 % 1017,5 hPa 0,0 l/m 0,87 h 0,00 h 0,6 UV-I 289 W/m 26,9 km/h (4 Bft)
03.10.2013 11:00 12,0 C 11,1 C 58 % 1017,4 hPa 0,0 l/m 0,97 h 0,00 h 1,0 UV-I 370 W/m 30,0 km/h (5 Bft)
03.10.2013 12:00 13,4 C 12,3 C 57 % 1016,8 hPa 0,0 l/m 0,93 h 0,00 h 1,3 UV-I 438 W/m 27,5 km/h (4 Bft)
03.10.2013 13:00 15,1 C 14,0 C 54 % 1016,5 hPa 0,0 l/m 0,97 h 0,00 h 1,5 UV-I 486 W/m 29,1 km/h (5 Bft)
03.10.2013 14:00 16,2 C 15,0 C 54 % 1016,1 hPa 0,0 l/m 0,97 h 0,00 h 1,7 UV-I 460 W/m 26,6 km/h (4 Bft)
03.10.2013 15:00 17,2 C 15,7 C 53 % 1015,4 hPa 0,0 l/m 0,97 h 0,00 h 1,2 UV-I 420 W/m 27,5 km/h (4 Bft)
03.10.2013 16:00 17,3 C 15,8 C 55 % 1015,1 hPa 0,0 l/m 0,90 h 0,00 h 0,6 UV-I 261 W/m 21,9 km/h (4 Bft)
03.10.2013 17:00 16,3 C 14,6 C 57 % 1014,9 hPa 0,0 l/m 0,00 h 0,00 h 0,0 UV-I 70 W/m 20,2 km/h (4 Bft)
03.10.2013 18:00 15,6 C 13,9 C 59 % 1014,9 hPa 0,0 l/m 0,00 h 0,00 h 0,0 UV-I 25 W/m 20,8 km/h (4 Bft)
03.10.2013 19:00 14,9 C 13,1 C 58 % 1015,1 hPa 0,0 l/m 0,00 h 0,00 h 0,0 UV-I 5 W/m 25,3 km/h (4 Bft)
03.10.2013 20:00 14,3 C 12,6 C 58 % 1015,4 hPa 0,0 l/m 0,00 h 0,00 h 0,0 UV-I 0 W/m 24,1 km/h (4 Bft)
03.10.2013 21:00 13,9 C 12,2 C 59 % 1015,5 hPa 0,0 l/m 0,00 h 0,00 h 0,0 UV-I 0 W/m 27,4 km/h (4 Bft)
03.10.2013 22:00 13,5 C 12,1 C 59 % 1015,7 hPa 0,0 l/m 0,00 h 0,00 h 0,0 UV-I 0 W/m 23,5 km/h (4 Bft)
03.10.2013 23:00 13,2 C 11,7 C 59 % 1015,8 hPa 0,0 l/m 0,00 h 0,00 h 0,0 UV-I 0 W/m 19,5 km/h (3 Bft)
04.10.2013 00:00 13,1 C 11,6 C 59 % 1015,3 hPa 0,0 l/m 0,00 h 0,00 h 0,0 UV-I 0 W/m 23,7 km/h (4 Bft)
04.10.2013 01:00 13,3 C 11,9 C 57 % 1015,2 hPa 0,0 l/m 0,00 h 0,00 h 0,0 UV-I 0 W/m 28,5 km/h (4 Bft)
04.10.2013 02:00 13,5 C 12,2 C 57 % 1015,2 hPa 0,0 l/m 0,00 h 0,00 h 0,0 UV-I 0 W/m 28,0 km/h (4 Bft)
04.10.2013 03:00 12,0 C 9,0 C 71 % 1015,0 hPa 1,4 l/m 0,00 h 0,63 h 0,0 UV-I 0 W/m 24,4 km/h (4 Bft)
04.10.2013 04:00 10,5 C 7,8 C 82 % 1014,3 hPa 0,4 l/m 0,00 h 0,43 h 0,0 UV-I 0 W/m 24,8 km/h (4 Bft)
04.10.2013 05:00 10,7 C 7,9 C 83 % 1014,3 hPa 0,0 l/m 0,00 h 0,00 h 0,0 UV-I 0 W/m 27,9 km/h (4 Bft)
04.10.2013 06:00 10,9 C 8,8 C 82 % 1014,7 hPa 0,0 l/m 0,00 h 0,13 h 0,0 UV-I 0 W/m 22,7 km/h (4 Bft)
04.10.2013 07:00 10,9 C 9,4 C 84 % 1014,4 hPa 0,0 l/m 0,00 h 0,00 h 0,0 UV-I 7 W/m 20,2 km/h (4 Bft)
04.10.2013 08:00 10,5 C 9,0 C 89 % 1014,6 hPa 0,2 l/m 0,00 h 0,40 h 0,0 UV-I 22 W/m 20,9 km/h (4 Bft)
04.10.2013 09:00 10,6 C 9,2 C 92 % 1015,0 hPa 0,0 l/m 0,00 h 0,27 h 0,0 UV-I 50 W/m 22,3 km/h (4 Bft)
04.10.2013 10:00 10,9 C 9,6 C 93 % 1015,2 hPa 0,2 l/m 0,00 h 0,17 h 0,0 UV-I 97 W/m 21,3 km/h (4 Bft)
04.10.2013 11:00 12,2 C 11,2 C 92 % 1015,3 hPa 0,0 l/m 0,00 h 0,00 h 0,7 UV-I 192 W/m 24,1 km/h (4 Bft)
04.10.2013 12:00 14,1 C 13,3 C 88 % 1015,3 hPa 0,0 l/m 0,37 h 0,00 h 1,0 UV-I 298 W/m 20,6 km/h (4 Bft)
04.10.2013 13:00 15,6 C 15,1 C 84 % 1015,6 hPa 0,0 l/m 0,67 h 0,00 h 1,2 UV-I 334 W/m 20,0 km/h (4 Bft)
04.10.2013 14:00 17,1 C 16,3 C 83 % 1015,2 hPa 0,0 l/m 0,80 h 0,00 h 1,3 UV-I 372 W/m 20,0 km/h (4 Bft)
04.10.2013 15:00 17,4 C 16,7 C 83 % 1015,0 hPa 0,0 l/m 0,20 h 0,00 h 0,7 UV-I 236 W/m 18,1 km/h (3 Bft)
04.10.2013 16:00 17,6 C 16,8 C 85 % 1014,9 hPa 0,0 l/m 0,33 h 0,00 h 0,0 UV-I 197 W/m 15,0 km/h (3 Bft)
04.10.2013 17:00 17,4 C 16,0 C 86 % 1014,9 hPa 0,0 l/m 0,03 h 0,00 h 0,0 UV-I 91 W/m 12,1 km/h (2 Bft)
04.10.2013 18:00 16,5 C 14,8 C 89 % 1015,0 hPa 0,0 l/m 0,00 h 0,00 h 0,0 UV-I 24 W/m 5,4 km/h (1 Bft)
04.10.2013 19:00 15,5 C 13,9 C 91 % 1015,2 hPa 0,0 l/m 0,00 h 0,00 h 0,0 UV-I 0 W/m 7,9 km/h (2 Bft)
04.10.2013 20:00 15,1 C 13,4 C 92 % 1015,3 hPa 0,0 l/m 0,00 h 0,00 h 0,0 UV-I 0 W/m 9,4 km/h (2 Bft)
04.10.2013 21:00 14,6 C 13,1 C 93 % 1015,1 hPa 0,0 l/m 0,00 h 0,00 h 0,0 UV-I 0 W/m 2,9 km/h (1 Bft)
04.10.2013 22:00 14,3 C 12,8 C 94 % 1015,1 hPa 0,0 l/m 0,00 h 0,00 h 0,0 UV-I 0 W/m 0,0 km/h (0 Bft)
04.10.2013 23:00 14,0 C 12,6 C 94 % 1015,0 hPa 0,0 l/m 0,00 h 0,00 h 0,0 UV-I 0 W/m 0,0 km/h (0 Bft)
05.10.2013 00:00 13,7 C 12,2 C 95 % 1014,9 hPa 0,0 l/m 0,00 h 0,00 h 0,0 UV-I 0 W/m 0,0 km/h (0 Bft)
05.10.2013 01:00 13,7 C 12,2 C 94 % 1014,9 hPa 0,0 l/m 0,00 h 0,00 h 0,0 UV-I 0 W/m 0,0 km/h (0 Bft)
05.10.2013 02:00 13,7 C 12,2 C 94 % 1014,9 hPa 0,0 l/m 0,00 h 0,00 h 0,0 UV-I 0 W/m 0,0 km/h (0 Bft)
05.10.2013 03:00 13,6 C 12,2 C 94 % 1014,8 hPa 0,0 l/m 0,00 h 0,00 h 0,0 UV-I 0 W/m 0,0 km/h (0 Bft)
05.10.2013 04:00 13,3 C 12,2 C 94 % 1014,8 hPa 0,0 l/m 0,00 h 0,03 h 0,0 UV-I 0 W/m 0,0 km/h (0 Bft)
05.10.2013 05:00 13,1 C 11,7 C 95 % 1014,9 hPa 0,0 l/m 0,00 h 0,07 h 0,0 UV-I 0 W/m 0,0 km/h (0 Bft)
05.10.2013 06:00 13,0 C 11,7 C 96 % 1014,8 hPa 0,0 l/m 0,00 h 0,00 h 0,0 UV-I 0 W/m 0,0 km/h (0 Bft)
05.10.2013 07:00 12,8 C 11,6 C 96 % 1014,9 hPa 0,6 l/m 0,00 h 0,80 h 0,0 UV-I 5 W/m 0,0 km/h (0 Bft)
05.10.2013 08:00 12,8 C 11,7 C 98 % 1015,4 hPa 0,0 l/m 0,00 h 0,23 h 0,0 UV-I 28 W/m 0,0 km/h (0 Bft)
05.10.2013 09:00 13,5 C 12,6 C 98 % 1015,8 hPa 0,0 l/m 0,00 h 0,00 h 0,0 UV-I 86 W/m 0,0 km/h (0 Bft)
05.10.2013 10:00 14,8 C 13,9 C 98 % 1016,4 hPa 0,0 l/m 0,00 h 0,00 h 0,0 UV-I 129 W/m 0,0 km/h (0 Bft)
05.10.2013 11:00 15,8 C 14,4 C 97 % 1016,9 hPa 0,0 l/m 0,00 h 0,00 h 0,0 UV-I 110 W/m 0,0 km/h (0 Bft)
05.10.2013 12:00 16,3 C 14,9 C 94 % 1017,1 hPa 0,0 l/m 0,00 h 0,00 h 0,0 UV-I 130 W/m 0,0 km/h (0 Bft)
05.10.2013 13:00 16,7 C 15,2 C 93 % 1017,4 hPa 0,0 l/m 0,00 h 0,00 h 0,5 UV-I 116 W/m 0,0 km/h (0 Bft)
05.10.2013 14:00 17,3 C 16,1 C 90 % 1017,4 hPa 0,0 l/m 0,00 h 0,13 h 0,6 UV-I 158 W/m 0,0 km/h (0 Bft)
05.10.2013 15:00 17,6 C 16,9 C 89 % 1017,6 hPa 0,0 l/m 0,00 h 0,00 h 0,5 UV-I 156 W/m 0,0 km/h (0 Bft)
05.10.2013 16:00 18,5 C 17,8 C 85 % 1017,9 hPa 0,0 l/m 0,53 h 0,00 h 0,0 UV-I 219 W/m 5,4 km/h (1 Bft)
05.10.2013 17:00 18,5 C 17,3 C 84 % 1018,2 hPa 0,2 l/m 0,03 h 0,00 h 0,0 UV-I 69 W/m 1,9 km/h (1 Bft)
05.10.2013 18:00 17,6 C 16,0 C 87 % 1018,7 hPa 0,0 l/m 0,00 h 0,00 h 0,0 UV-I 8 W/m 4,4 km/h (1 Bft)
05.10.2013 19:00 16,8 C 15,3 C 86 % 1019,6 hPa 0,0 l/m 0,00 h 0,00 h 0,0 UV-I 0 W/m 8,9 km/h (2 Bft)
05.10.2013 20:00 16,2 C 14,9 C 87 % 1020,3 hPa 0,0 l/m 0,00 h 0,00 h 0,0 UV-I 0 W/m 6,1 km/h (2 Bft)
05.10.2013 21:00 15,5 C 13,9 C 88 % 1020,9 hPa 0,0 l/m 0,00 h 0,00 h 0,0 UV-I 0 W/m 1,9 km/h (1 Bft)
05.10.2013 22:00 14,4 C 13,0 C 87 % 1021,5 hPa 0,0 l/m 0,00 h 0,00 h 0,0 UV-I 0 W/m 0,9 km/h (0 Bft)
05.10.2013 23:00 13,0 C 11,2 C 90 % 1022,0 hPa 0,0 l/m 0,00 h 0,00 h 0,0 UV-I 0 W/m 0,1 km/h (0 Bft)
06.10.2013 00:00 11,2 C 9,4 C 94 % 1022,4 hPa 0,0 l/m 0,00 h 0,00 h 0,0 UV-I 0 W/m 0,0 km/h (0 Bft)
06.10.2013 01:00 11,1 C 9,9 C 97 % 1022,5 hPa 0,0 l/m 0,00 h 0,00 h 0,0 UV-I 0 W/m 0,0 km/h (0 Bft)
06.10.2013 02:00 11,8 C 10,9 C 97 % 1022,7 hPa 0,0 l/m 0,00 h 0,00 h 0,0 UV-I 0 W/m 0,0 km/h (0 Bft)
06.10.2013 03:00 12,1 C 11,1 C 97 % 1022,8 hPa 0,0 l/m 0,00 h 0,00 h 0,0 UV-I 0 W/m 0,0 km/h (0 Bft)
06.10.2013 04:00 12,0 C 10,8 C 97 % 1023,0 hPa 0,0 l/m 0,00 h 0,00 h 0,0 UV-I 0 W/m 0,0 km/h (0 Bft)
06.10.2013 05:00 11,5 C 10,0 C 97 % 1023,5 hPa 0,0 l/m 0,00 h 0,00 h 0,0 UV-I 0 W/m 0,0 km/h (0 Bft)
06.10.2013 06:00 11,4 C 10,4 C 98 % 1023,9 hPa 0,0 l/m 0,00 h 0,00 h 0,0 UV-I 0 W/m 0,0 km/h (0 Bft)
06.10.2013 07:00 11,8 C 11,1 C 98 % 1024,2 hPa 0,0 l/m 0,00 h 0,00 h 0,0 UV-I 6 W/m 0,0 km/h (0 Bft)
06.10.2013 08:00 11,5 C 10,6 C 98 % 1024,7 hPa 0,0 l/m 0,00 h 0,00 h 0,0 UV-I 20 W/m 0,0 km/h (0 Bft)
06.10.2013 09:00 11,6 C 11,4 C 99 % 1025,2 hPa 0,0 l/m 0,07 h 0,00 h 0,0 UV-I 85 W/m 0,0 km/h (0 Bft)
06.10.2013 10:00 12,7 C 12,7 C 97 % 1025,5 hPa 0,0 l/m 0,00 h 0,00 h 0,0 UV-I 144 W/m 0,0 km/h (0 Bft)
06.10.2013 11:00 14,0 C 14,1 C 91 % 1025,6 hPa 0,0 l/m 0,20 h 0,00 h 0,8 UV-I 254 W/m 0,0 km/h (0 Bft)
06.10.2013 12:00 15,4 C 15,0 C 84 % 1025,7 hPa 0,0 l/m 0,60 h 0,00 h 1,3 UV-I 342 W/m 0,0 km/h (0 Bft)
06.10.2013 13:00 15,8 C 15,1 C 79 % 1025,7 hPa 0,0 l/m 0,20 h 0,00 h 1,3 UV-I 257 W/m 0,0 km/h (0 Bft)
06.10.2013 14:00 16,6 C 15,5 C 74 % 1025,4 hPa 0,0 l/m 0,50 h 0,00 h 1,4 UV-I 369 W/m 0,0 km/h (0 Bft)
06.10.2013 15:00 16,6 C 15,8 C 74 % 1025,2 hPa 0,0 l/m 0,17 h 0,00 h 0,7 UV-I 193 W/m 0,0 km/h (0 Bft)
06.10.2013 16:00 16,5 C 15,9 C 76 % 1025,3 hPa 0,0 l/m 0,00 h 0,00 h 0,0 UV-I 113 W/m 0,0 km/h (0 Bft)
06.10.2013 17:00 16,2 C 15,3 C 77 % 1025,2 hPa 0,0 l/m 0,00 h 0,00 h 0,0 UV-I 75 W/m 0,0 km/h (0 Bft)
06.10.2013 18:00 15,4 C 13,7 C 83 % 1025,4 hPa 0,0 l/m 0,00 h 0,00 h 0,0 UV-I 20 W/m 0,0 km/h (0 Bft)
06.10.2013 19:00 14,1 C 12,3 C 89 % 1025,7 hPa 0,0 l/m 0,00 h 0,00 h 0,0 UV-I 0 W/m 0,0 km/h (0 Bft)
06.10.2013 20:00 13,7 C 12,2 C 91 % 1026,0 hPa 0,0 l/m 0,00 h 0,00 h 0,0 UV-I 0 W/m 0,0 km/h (0 Bft)
06.10.2013 21:00 13,3 C 11,8 C 93 % 1026,1 hPa 0,0 l/m 0,00 h 0,00 h 0,0 UV-I 0 W/m 0,0 km/h (0 Bft)
06.10.2013 22:00 12,0 C 10,5 C 95 % 1026,2 hPa 0,0 l/m 0,00 h 0,00 h 0,0 UV-I 0 W/m 0,0 km/h (0 Bft)
06.10.2013 23:00 11,5 C 10,0 C 96 % 1026,2 hPa 0,0 l/m 0,00 h 0,00 h 0,0 UV-I 0 W/m 0,0 km/h (0 Bft)
Min-Datum _ 02.10.13 02.10.13 03.10.13 30.09.13 - - - - - 30.09.13
_ Min-Zeit 06:54 06:46 13:16 16:06 - - - - - 00:00
Minimum _ 2,7 C 1,1 C 53 % 1008,3 hPa - - - - - 0,0 km/h (0 Bft)
Max-Datum _ 05.10.13 05.10.13 06.10.13 06.10.13 04.10.13 30.09.13 04.10.13 03.10.13 06.10.13 03.10.13
_ Max-Zeit 16:52 16:36 07:48 22:38 03:24 08:38 03:14 13:38 12:18 13:48
Maximum _ 19,4 C 18,3 C 99 % 1026,3 hPa 1,4 l/m 0,03 h 0,03 h 2,0 UV-I 642 W/m 46,3 km/h
SO (6 Bft)
Durchschnitt _ 12,7 C 11,3 C 79 % 1016,2 hPa #3,0 l/m #38:46 h #3:18 h 1,1 UV-I 210 W/m 8,7 km/h (2 Bft)
© 2013 W. Hausmann